Flight Track Log - Related Links

Times and Time Zones

All times are in EDT time to prevent confusion due to time zone crossing. See the SKW6538 flight status page for this flight to view local times or setup timezone preferences in your user account.

Time Position Orientation Groundspeed Altitude Reporting Facility
EDT Latitude Longitude Course Direction KTS MPH feet Rate Location/Type
Mon 12:00:46 AM 39.8833 -104.5500 348° North 214 246 7,300  Level Denver TRACON
Mon 12:01:46 AM 39.9000 -104.4667 75° East 273 314 9,200 1,579 Climbing Denver TRACON
Mon 12:02:40 AM 39.9667 -104.4333 21° North 307 353 10,300 1,650 Climbing Denver TRACON
Mon 12:03:00 AM 40.2820 -104.8063 347° North  Level FlightAware Approximate
Mon 12:03:46 AM 40.0667 -104.4833 339° North 336 387 12,500  Level Denver TRACON
Mon 12:04:00 AM 40.3902 -104.8412 346° North  Level FlightAware Approximate
Mon 12:05:00 AM 40.4982 -104.8772 346° North  Level FlightAware Approximate
Mon 12:05:40 AM 40.2081 -104.5503 340° North 329 379 15,900  Level Denver Center
Mon 12:06:00 AM 40.6070 -104.9091 348° North  Level FlightAware Approximate
Mon 12:06:42 AM 40.3225 -104.6089 339° North 358 412 17,600  Level Denver Center
Mon 12:07:43 AM 40.4169 -104.6578 338° Northwest 366 421 18,800 1,230 Climbing Denver Center
Mon 12:08:44 AM 40.5206 -104.7114 339° North 373 429 20,100 1,180 Climbing Denver Center
Mon 12:09:45 AM 40.6186 -104.7631 338° Northwest 389 448 21,200 1,033 Climbing Denver Center
Mon 12:10:46 AM 40.7189 -104.8169 338° Northwest 392 451 22,200 934 Climbing Denver Center
Mon 12:11:47 AM 40.8194 -104.8739 337° Northwest 382 440 23,100 806 Climbing Denver Center
Mon 12:13:00 AM 40.8778 -104.9994 302° West 393 452 24,000 403 Climbing Denver Center
Mon 12:14:01 AM 40.9428 -105.1539 299° West 405 466 24,000  Level Denver Center
Mon 12:15:03 AM 41.0000 -105.2908 299° West 420 483 24,000 341 Level Denver Center
Mon 12:16:04 AM 41.0622 -105.4394 299° West 429 494 24,700 836 Climbing Denver Center
Mon 12:17:05 AM 41.1147 -105.5667 299° West 416 479 25,700 639 Climbing Denver Center
Mon 12:18:06 AM 41.1753 -105.7128 299° West 406 467 26,000 148 Climbing Denver Center
Mon 12:19:07 AM 41.2281 -105.8422 298° West 414 476 26,000  Level Denver Center
Mon 12:20:08 AM 41.2828 -105.9753 299° West 425 489 26,000 393 Level Denver Center
Mon 12:21:09 AM 41.3464 -106.1317 298° West 430 495 26,800 836 Climbing Denver Center
Mon 12:22:10 AM 41.3997 -106.2636 298° West 424 488 27,700 934 Climbing Denver Center
Mon 12:23:11 AM 41.4522 -106.3917 299° West 414 476 28,700 1,033 Climbing Denver Center
Mon 12:24:12 AM 41.5069 -106.5294 298° West 401 461 29,800 984 Climbing Denver Center
Mon 12:25:13 AM 41.5561 -106.6511 298° West 393 452 30,700 836 Climbing Denver Center
Mon 12:26:14 AM 41.6106 -106.7897 298° West 381 438 31,500 639 Climbing Denver Center
Mon 12:27:15 AM 41.6581 -106.9075 298° West 378 435 32,000 246 Climbing Denver Center
Mon 12:28:16 AM 41.7119 -107.0478 297° West 381 438 32,000  Level Denver Center
Mon 12:29:17 AM 41.7611 -107.1708 298° West 389 448 32,000  Level Denver Center
Mon 12:30:19 AM 41.8097 -107.2936 298° West 388 447 32,000  Level Denver Center
Mon 12:31:20 AM 41.8650 -107.4350 298° West 385 443 32,000  Level Denver Center
Mon 12:32:21 AM 41.9128 -107.5575 298° West 388 447 32,000  Level Denver Center
Mon 12:33:22 AM 41.9658 -107.6975 297° West 380 437 32,000  Level Denver Center
Mon 12:33:40 AM 41.9806 -107.7392 295° West 380 437 32,000  Level Salt Lake Center
Mon 12:34:42 AM 42.0272 -107.8600 298° West 381 438 32,000  Level Salt Lake Center
Mon 12:35:43 AM 42.0733 -107.9803 297° West 379 436 32,000  Level Salt Lake Center
Mon 12:36:44 AM 42.1286 -108.1236 298° West 387 445 32,000  Level Salt Lake Center
Mon 12:37:45 AM 42.1733 -108.2453 296° West 383 441 32,000  Level Salt Lake Center
Mon 12:38:46 AM 42.2267 -108.3856 297° West 380 437 32,000  Level Salt Lake Center
Mon 12:39:48 AM 42.2731 -108.5086 297° West 385 443 32,000  Level Salt Lake Center
Mon 12:40:48 AM 42.3183 -108.6311 297° West 383 441 32,000  Level Salt Lake Center
Mon 12:41:50 AM 42.3711 -108.7756 296° West 385 443 32,000  Level Salt Lake Center
Mon 12:42:51 AM 42.4164 -108.8992 296° West 384 442 32,000  Level Salt Lake Center
Mon 12:43:52 AM 42.4628 -109.0233 297° West 387 445 32,000  Level Salt Lake Center
Mon 12:44:53 AM 42.5153 -109.1703 296° West 389 448 32,000  Level Salt Lake Center
Mon 12:45:54 AM 42.5606 -109.2942 296° West 388 447 32,000  Level Salt Lake Center
Mon 12:46:55 AM 42.6136 -109.4408 296° West 389 448 32,000  Level Salt Lake Center
Mon 12:47:56 AM 42.6586 -109.5656 296° West 387 445 32,000  Level Salt Lake Center
Mon 12:48:57 AM 42.7042 -109.6908 296° West 387 445 32,000  Level Salt Lake Center
Mon 12:49:58 AM 42.7572 -109.8400 296° West 393 452 32,000  Level Salt Lake Center
Mon 12:50:59 AM 42.8014 -109.9661 296° West 395 455 32,000  Level Salt Lake Center
Mon 12:52:00 AM 42.8544 -110.1167 296° West 395 455 32,000  Level Salt Lake Center
Mon 12:53:01 AM 42.9011 -110.2467 296° West 393 452 32,000  Level Salt Lake Center
Mon 12:54:02 AM 42.9458 -110.3769 295° West 396 456 32,000 -49 Level Salt Lake Center
Mon 12:55:03 AM 42.9983 -110.5256 296° West 396 456 31,900 -1,230 Descending Salt Lake Center
Mon 12:56:04 AM 43.0464 -110.6608 296° West 408 470 29,500 -2,361 Descending Salt Lake Center
Mon 12:57:05 AM 43.0953 -110.8031 295° West 426 490 27,100 -2,557 Descending Salt Lake Center
Mon 12:58:06 AM 43.1528 -110.9697 295° West 432 497 24,300 -2,557 Descending Salt Lake Center
Mon 12:59:07 AM 43.2011 -111.1103 295° West 429 494 21,900 -2,628 Descending Salt Lake Center
Mon 01:00:07 AM 43.2531 -111.2625 295° West 406 467 19,000 -2,579 Descending Salt Lake Center
Mon 01:01:08 AM 43.2958 -111.3931 294° West 394 453 16,700 -2,311 Descending Salt Lake Center
Mon 01:02:09 AM 43.3375 -111.5131 296° West 382 440 14,300 -1,820 Descending Salt Lake Center
Mon 01:03:10 AM 43.3772 -111.6300 295° West 368 423 13,000 -689 Descending Salt Lake Center
Mon 01:04:11 AM 43.4206 -111.7628 294° West 351 404 12,900 -984 Descending Salt Lake Center
Mon 01:05:12 AM 43.4553 -111.8606 296° West 322 371 11,000 -1,884 Descending Salt Lake Center
Mon 01:06:12 AM 43.4858 -111.9606 293° West 309 356 9,100 -1,686 Descending Salt Lake Center
Mon 01:07:13 AM 43.4294 -112.0433 227° Southwest 289 333 7,600 -885 Descending Salt Lake Center
Mon 01:08:14 AM 43.3833 -112.0914 217° Southwest 244 281 7,300 -295 Descending Salt Lake Center
Mon 01:09:15 AM 43.4061 -112.1533 297° West 216 249 7,000 -541 Descending Salt Lake Center
Mon 01:10:16 AM 43.4539 -112.1372 14° North 182 209 6,200 -843 Descending Salt Lake Center
Mon 01:11:16 AM 43.4872 -112.1028 37° Northeast 163 188 5,300 -744 Descending Salt Lake Center
Mon 01:12:17 AM 43.5167 -112.0708 38° Northeast 151 174 4,700 -590 Descending Salt Lake Center

Login

Don't have an account? Register now (free) for customized features, flight alerts, and more!